Time;durP1;ratioP1;P1;durP2;ratioP2;P2;SDS_P1;SDS_P2;PMS_P1;PMS_P2;Temp;Humidity;BMP_temperature;BMP_pressure;BME280_temperature;BME280_humidity;BME280_pressure;Samples;Min_cycle;Max_cycle;Signal;HPM_P1;HPM_P2
2023/01/28 00:00:54;;;;;;;16.02;10.20;;;;;;;2.11;100.00;102910.91;5053172;28;20063;-76
2023/01/28 00:03:20;;;;;;;17.60;10.82;;;;;;;2.10;100.00;102909.16;5053539;28;20025;-77
2023/01/28 00:05:45;;;;;;;16.30;10.13;;;;;;;2.11;100.00;102910.03;5052400;28;20498;-77
2023/01/28 00:08:13;;;;;;;15.07;10.27;;;;;;;2.09;100.00;102906.50;5051951;28;20441;-77
2023/01/28 00:10:39;;;;;;;14.40;10.02;;;;;;;2.00;100.00;102896.69;5053141;28;20025;-77
2023/01/28 00:13:06;;;;;;;14.57;9.82;;;;;;;2.07;100.00;102908.16;5053321;28;20047;-77
2023/01/28 00:15:31;;;;;;;14.00;9.68;;;;;;;2.05;100.00;102909.75;5051611;28;20048;-77
2023/01/28 00:17:56;;;;;;;15.95;10.00;;;;;;;2.04;100.00;102901.16;5051892;28;20040;-77
2023/01/28 00:20:22;;;;;;;18.35;9.35;;;;;;;2.02;100.00;102904.47;5053335;28;20025;-77
2023/01/28 00:22:48;;;;;;;14.05;9.43;;;;;;;2.07;100.00;102918.44;5052460;28;20139;-77
2023/01/28 00:25:14;;;;;;;15.52;10.13;;;;;;;2.05;100.00;102927.75;5052299;28;20037;-77
2023/01/28 00:27:39;;;;;;;13.85;9.68;;;;;;;2.02;100.00;102917.34;5052233;28;20035;-77
2023/01/28 00:30:06;;;;;;;14.70;10.13;;;;;;;2.05;100.00;102931.22;5051354;28;20029;-77
2023/01/28 00:32:31;;;;;;;15.60;9.73;;;;;;;2.02;100.00;102928.50;5052850;28;20033;-77
2023/01/28 00:34:56;;;;;;;15.07;9.63;;;;;;;1.97;100.00;102913.69;5052580;28;20467;-77
2023/01/28 00:37:22;;;;;;;13.20;8.85;;;;;;;1.97;100.00;102924.00;5051612;28;20465;-77
2023/01/28 00:39:48;;;;;;;15.02;8.88;;;;;;;2.01;100.00;102938.75;5051900;28;20429;-77
2023/01/28 00:42:13;;;;;;;15.68;9.25;;;;;;;1.99;100.00;102936.09;5051391;28;20100;-77
2023/01/28 00:44:39;;;;;;;15.45;9.30;;;;;;;1.91;100.00;102918.56;5052102;28;20112;-77
2023/01/28 00:47:04;;;;;;;15.40;9.45;;;;;;;1.96;100.00;102929.91;5052742;28;20538;-77
2023/01/28 00:49:30;;;;;;;14.73;9.57;;;;;;;1.97;100.00;102937.72;5052444;28;20029;-77
2023/01/28 00:51:55;;;;;;;16.25;10.15;;;;;;;1.96;100.00;102930.81;5051099;28;20025;-76
2023/01/28 00:54:20;;;;;;;15.00;9.82;;;;;;;1.95;100.00;102928.16;5049408;28;20068;-77
2023/01/28 00:56:46;;;;;;;16.25;9.82;;;;;;;1.84;100.00;102917.41;5052571;28;20078;-77
2023/01/28 00:59:12;;;;;;;14.07;9.38;;;;;;;1.94;100.00;102935.00;5051209;28;20020;-77
2023/01/28 01:01:38;;;;;;;15.95;10.25;;;;;;;1.93;100.00;102933.25;5052715;28;20033;-77
2023/01/28 01:04:03;;;;;;;16.67;9.75;;;;;;;1.93;100.00;102937.50;5051761;28;20524;-77
2023/01/28 01:06:34;;;;;;;14.90;9.57;;;;;;;1.97;100.00;102945.44;5050283;28;20067;-77
2023/01/28 01:09:01;;;;;;;14.73;9.23;;;;;;;1.94;100.00;102944.44;5040581;28;20037;-77
2023/01/28 01:11:27;;;;;;;15.98;10.13;;;;;;;1.84;100.00;102931.13;5050754;28;20044;-77
2023/01/28 01:13:54;;;;;;;16.05;9.98;;;;;;;1.91;100.00;102949.44;5052592;28;20033;-77
2023/01/28 01:16:21;;;;;;;15.23;9.68;;;;;;;1.86;100.00;102938.91;5049457;28;20033;-77
2023/01/28 01:18:47;;;;;;;15.13;9.43;;;;;;;1.89;100.00;102946.78;5051161;28;20017;-77
2023/01/28 01:21:15;;;;;;;15.60;10.32;;;;;;;1.87;100.00;102931.28;5052037;28;20081;-77
2023/01/28 01:23:40;;;;;;;14.30;9.70;;;;;;;1.80;100.00;102928.38;5052545;28;20033;-77
2023/01/28 01:26:06;;;;;;;16.08;9.65;;;;;;;1.85;100.00;102939.72;5049205;28;20098;-76
2023/01/28 01:28:33;;;;;;;15.52;9.68;;;;;;;1.80;100.00;102933.50;5052010;28;20094;-77
2023/01/28 01:31:14;;;;;;;15.65;9.85;;;;;;;1.87;100.00;102935.53;5051939;28;20456;-76
2023/01/28 01:33:40;;;;;;;15.45;9.38;;;;;;;1.87;100.00;102933.84;5051877;28;20025;-76
2023/01/28 01:36:06;;;;;;;15.48;9.25;;;;;;;1.86;100.00;102931.19;5050007;28;20373;-77
2023/01/28 01:38:32;;;;;;;15.25;9.95;;;;;;;1.82;100.00;102932.75;5051739;28;20381;-77
2023/01/28 01:41:00;;;;;;;17.00;10.05;;;;;;;1.83;100.00;102933.63;5051192;28;20032;-76
2023/01/28 01:43:45;;;;;;;13.68;9.27;;;;;;;1.83;100.00;102928.47;5049735;28;20021;-76
2023/01/28 01:46:20;;;;;;;14.68;9.80;;;;;;;1.83;100.00;102933.63;5049785;28;20040;-77
2023/01/28 01:48:46;;;;;;;14.30;9.23;;;;;;;1.81;100.00;102943.84;5051599;28;20025;-76
2023/01/28 01:51:18;;;;;;;15.98;9.55;;;;;;;1.76;100.00;102934.16;5051766;28;20379;-77
2023/01/28 01:53:47;;;;;;;14.65;9.77;;;;;;;1.79;100.00;102942.88;5051545;28;20413;-76
2023/01/28 01:56:18;;;;;;;14.75;9.70;;;;;;;1.80;100.00;102939.53;5050981;28;20484;-77
2023/01/28 01:58:46;;;;;;;16.98;10.30;;;;;;;1.72;100.00;102929.69;5050920;28;20029;-76
2023/01/28 02:01:12;;;;;;;16.40;10.10;;;;;;;1.78;100.00;102940.25;5037083;28;20031;-77
2023/01/28 02:04:10;;;;;;;16.25;10.40;;;;;;;1.79;100.00;102937.75;5051998;28;20072;-77
2023/01/28 02:06:36;;;;;;;17.17;10.07;;;;;;;1.79;100.00;102942.00;5035360;28;20115;-77
2023/01/28 02:09:02;;;;;;;16.23;10.45;;;;;;;1.79;100.00;102948.03;5055181;28;20053;-77
2023/01/28 02:11:32;;;;;;;17.27;10.13;;;;;;;1.77;100.00;102941.09;5054999;28;20056;-77
2023/01/28 02:14:02;;;;;;;16.50;10.23;;;;;;;1.72;100.00;102937.41;5056183;28;20025;-77
2023/01/28 02:16:28;;;;;;;16.40;10.35;;;;;;;1.67;100.00;102931.16;5050652;28;20033;-76
2023/01/28 02:18:53;;;;;;;15.80;10.55;;;;;;;1.77;100.00;102948.81;5055852;28;20021;-77
2023/01/28 02:21:34;;;;;;;16.23;9.77;;;;;;;1.77;100.00;102953.94;5055336;28;20376;-77
2023/01/28 02:24:39;;;;;;;17.92;9.98;;;;;;;1.75;100.00;102951.28;5053642;28;20029;-77
2023/01/28 02:27:21;;;;;;;16.20;9.55;;;;;;;1.74;100.00;102934.09;4963511;28;20042;-76
2023/01/28 02:29:53;;;;;;;17.13;10.80;;;;;;;1.76;100.00;102941.88;5045912;28;20091;-77
2023/01/28 02:32:34;;;;;;;16.75;10.70;;;;;;;1.73;100.00;102940.03;5053754;28;20017;-77
2023/01/28 02:35:00;;;;;;;16.55;9.93;;;;;;;1.74;100.00;102936.66;5055486;28;20029;-76
2023/01/28 02:37:33;;;;;;;17.00;10.63;;;;;;;1.69;100.00;102940.72;5053414;28;20136;-77
2023/01/28 02:40:06;;;;;;;16.75;11.05;;;;;;;1.70;100.00;102946.72;5055481;28;20028;-76
2023/01/28 02:42:35;;;;;;;16.17;10.35;;;;;;;1.70;100.00;102944.16;5054014;28;20122;-77
2023/01/28 02:45:01;;;;;;;17.05;9.98;;;;;;;1.68;100.00;102941.53;5054643;28;20029;-76
2023/01/28 02:50:16;;;;;;;;;;;;;;;1.71;100.00;102935.66;5054357;28;20040;-76
2023/01/28 02:56:06;;;;;;;16.23;10.10;;;;;;;1.68;100.00;102950.94;5055015;28;20052;-76
2023/01/28 02:58:40;;;;;;;15.63;10.00;;;;;;;1.67;100.00;102951.72;5052790;28;20106;-76
2023/01/28 03:01:15;;;;;;;17.60;10.43;;;;;;;1.67;100.00;102951.72;5055091;28;20016;-76
2023/01/28 03:04:06;;;;;;;14.30;9.25;;;;;;;1.66;100.00;102957.69;5054202;28;20083;-76
2023/01/28 03:06:38;;;;;;;15.25;9.68;;;;;;;1.62;100.00;102954.97;5053766;28;20557;-76
2023/01/28 03:09:25;;;;;;;15.63;9.90;;;;;;;1.57;100.00;102950.41;5053107;28;20037;-76
2023/01/28 03:37:21;;;;;;;15.07;10.23;;;;;;;1.53;100.00;102954.53;5051267;28;20056;-76
2023/01/28 03:39:47;;;;;;;15.52;9.95;;;;;;;1.52;100.00;102960.50;5053356;28;20025;-76
2023/01/28 03:42:13;;;;;;;14.88;9.32;;;;;;;1.50;100.00;102954.38;5053392;28;20036;-76
2023/01/28 03:44:51;;;;;;;15.88;9.07;;;;;;;1.47;100.00;102959.41;5054395;28;20033;-76
2023/01/28 03:47:24;;;;;;;14.45;9.05;;;;;;;1.50;100.00;102971.50;5052228;28;20501;-76
2023/01/28 03:49:51;;;;;;;13.70;8.75;;;;;;;1.48;100.00;102961.16;5054438;28;20036;-76
2023/01/28 03:52:22;;;;;;;13.98;8.85;;;;;;;1.48;100.00;102956.03;5052765;28;20080;-76
2023/01/28 03:54:48;;;;;;;12.77;8.68;;;;;;;1.47;99.90;102953.34;5053417;28;20025;-76
2023/01/28 03:57:14;;;;;;;13.98;8.73;;;;;;;1.33;100.00;102933.03;5052168;28;20017;-76
2023/01/28 03:59:40;;;;;;;13.35;8.52;;;;;;;1.46;100.00;102957.63;5043714;28;20116;-76
2023/01/28 04:02:06;;;;;;;13.40;9.10;;;;;;;1.45;100.00;102961.00;5052324;28;20100;-76
2023/01/28 04:04:32;;;;;;;14.93;9.02;;;;;;;1.45;100.00;102968.72;5053051;28;20086;-76
2023/01/28 04:06:58;;;;;;;13.60;8.32;;;;;;;1.40;100.00;102967.59;5052759;28;20028;-76
2023/01/28 04:09:23;;;;;;;13.07;8.55;;;;;;;1.39;100.00;102964.16;5051187;28;20025;-76
2023/01/28 04:11:49;;;;;;;13.02;8.63;;;;;;;1.39;100.00;102971.00;5053785;28;20032;-76
2023/01/28 04:14:16;;;;;;;13.02;8.45;;;;;;;1.41;100.00;102984.81;5051098;28;20426;-76
2023/01/28 04:16:41;;;;;;;12.93;8.43;;;;;;;1.34;100.00;102980.16;5053645;28;20215;-76
2023/01/28 04:19:08;;;;;;;13.75;9.00;;;;;;;1.39;100.00;102986.41;5052708;28;20128;-76
2023/01/28 04:21:33;;;;;;;13.70;9.05;;;;;;;1.38;100.00;102979.53;5052564;28;20037;-76
2023/01/28 04:23:59;;;;;;;13.95;9.13;;;;;;;1.36;100.00;102970.84;5052808;28;20404;-76
2023/01/28 04:26:24;;;;;;;15.10;9.18;;;;;;;1.39;100.00;102983.84;5049912;28;20049;-76
2023/01/28 04:28:49;;;;;;;15.23;9.18;;;;;;;1.26;100.00;102966.06;5051084;28;20055;-76
2023/01/28 04:31:14;;;;;;;15.05;9.98;;;;;;;1.38;100.00;102984.66;5052909;28;20063;-76
2023/01/28 04:33:40;;;;;;;15.43;10.15;;;;;;;1.36;100.00;102975.97;5052406;28;20045;-76
2023/01/28 04:36:05;;;;;;;16.65;10.00;;;;;;;1.37;100.00;102986.34;5051751;28;20036;-76
2023/01/28 04:38:30;;;;;;;15.45;10.20;;;;;;;1.24;100.00;102960.84;5050471;28;20045;-76
2023/01/28 04:40:56;;;;;;;16.33;10.52;;;;;;;1.29;100.00;102971.38;5052874;28;20168;-76
2023/01/28 04:43:21;;;;;;;16.58;9.80;;;;;;;1.34;100.00;102977.59;5051137;28;20025;-76
2023/01/28 04:45:47;;;;;;;17.17;10.57;;;;;;;1.32;100.00;102977.53;5035130;28;20048;-76
2023/01/28 04:48:13;;;;;;;17.30;10.00;;;;;;;1.31;100.00;102978.34;5051615;28;20024;-76
2023/01/28 04:50:39;;;;;;;16.58;9.65;;;;;;;1.30;100.00;102980.81;5050521;28;20052;-76
2023/01/28 04:53:04;;;;;;;15.68;10.02;;;;;;;1.19;100.00;102962.31;5052080;28;20020;-76
2023/01/28 04:55:29;;;;;;;16.65;10.25;;;;;;;1.30;100.00;102980.81;5052311;28;20063;-76
2023/01/28 04:57:55;;;;;;;17.02;10.80;;;;;;;1.23;100.00;102968.50;5051549;28;20036;-76
2023/01/28 05:00:20;;;;;;;16.77;10.57;;;;;;;1.27;100.00;102978.09;5052602;28;20029;-76
2023/01/28 05:02:45;;;;;;;15.15;9.27;;;;;;;1.26;100.00;102978.91;5052189;28;20029;-76
2023/01/28 05:05:11;;;;;;;17.45;9.60;;;;;;;1.12;100.00;102961.16;5049799;28;20386;-76
2023/01/28 05:07:36;;;;;;;16.95;10.57;;;;;;;1.20;100.00;102973.47;5052676;28;20029;-76
2023/01/28 05:10:03;;;;;;;17.98;11.00;;;;;;;1.21;100.00;102988.97;5052846;28;20017;-76
2023/01/28 05:12:29;;;;;;;16.33;10.50;;;;;;;1.19;100.00;102979.44;5051518;28;20068;-76
2023/01/28 05:14:54;;;;;;;20.60;11.30;;;;;;;1.19;100.00;102984.56;5050352;28;20025;-76
2023/01/28 05:17:19;;;;;;;18.23;10.50;;;;;;;1.17;100.00;102985.34;5052029;28;20032;-76
2023/01/28 05:19:45;;;;;;;16.73;9.68;;;;;;;1.12;100.00;102968.84;5051330;28;20040;-76
2023/01/28 05:22:11;;;;;;;16.77;10.02;;;;;;;1.09;100.00;102978.97;5052426;28;20036;-76
2023/01/28 05:24:36;;;;;;;15.30;10.40;;;;;;;1.15;100.00;102997.25;5050702;28;20029;-77
2023/01/28 05:27:02;;;;;;;17.23;10.35;;;;;;;1.15;100.00;102992.13;5050870;28;20361;-77
2023/01/28 05:29:27;;;;;;;14.82;9.55;;;;;;;1.16;100.00;102987.88;5051927;28;20021;-76
2023/01/28 05:31:52;;;;;;;17.25;10.75;;;;;;;1.14;100.00;102980.09;5051634;28;20025;-76
2023/01/28 05:34:17;;;;;;;16.20;10.05;;;;;;;1.13;100.00;102974.88;5051166;28;20484;-76
2023/01/28 05:36:43;;;;;;;17.13;10.30;;;;;;;1.10;100.00;102978.16;5052353;28;20025;-76
2023/01/28 05:39:08;;;;;;;17.65;10.45;;;;;;;1.10;100.00;102972.13;5051100;28;20029;-76
2023/01/28 05:41:33;;;;;;;17.70;10.73;;;;;;;1.11;100.00;102979.94;5051914;28;20025;-76
2023/01/28 05:43:59;;;;;;;17.23;10.20;;;;;;;1.12;100.00;102976.56;5051790;28;20086;-76
2023/01/28 05:46:24;;;;;;;18.73;10.57;;;;;;;1.10;100.00;102978.16;5050407;28;20350;-76
2023/01/28 05:48:51;;;;;;;17.35;10.60;;;;;;;1.11;100.00;102979.03;5052384;28;20028;-76
2023/01/28 05:51:17;;;;;;;16.90;9.95;;;;;;;1.11;100.00;102985.09;5051001;28;20476;-76
2023/01/28 05:53:42;;;;;;;17.65;10.35;;;;;;;1.10;100.00;102982.41;5050744;28;20059;-76
2023/01/28 05:56:07;;;;;;;15.50;10.13;;;;;;;0.94;100.00;102949.94;5052403;28;20025;-76
2023/01/28 05:58:33;;;;;;;18.95;10.80;;;;;;;1.07;100.00;102988.28;5051577;28;20383;-76
2023/01/28 06:00:58;;;;;;;16.48;9.55;;;;;;;1.04;100.00;102985.56;5051271;28;20025;-76
2023/01/28 06:03:23;;;;;;;17.83;10.25;;;;;;;1.03;100.00;102991.50;5050383;28;20111;-76
2023/01/28 06:05:49;;;;;;;15.77;9.98;;;;;;;0.99;100.00;102997.31;5052017;28;20086;-76
2023/01/28 06:08:14;;;;;;;16.45;9.93;;;;;;;0.99;100.00;102988.72;5048890;28;20033;-76
2023/01/28 06:10:39;;;;;;;16.25;10.23;;;;;;;1.00;100.00;102990.47;5052077;28;20083;-76
2023/01/28 06:13:05;;;;;;;14.50;9.15;;;;;;;1.00;100.00;103001.63;5052083;28;20107;-76
2023/01/28 06:15:30;;;;;;;16.00;9.80;;;;;;;0.87;100.00;102982.16;5049869;28;20069;-76
2023/01/28 06:17:55;;;;;;;16.35;9.43;;;;;;;0.95;100.00;102990.25;5051514;28;20100;-76
2023/01/28 06:20:21;;;;;;;15.13;9.85;;;;;;;0.99;100.00;103005.00;5051427;28;20442;-76
2023/01/28 06:22:49;;;;;;;13.57;9.23;;;;;;;0.84;100.00;102981.13;5050827;28;20017;-76
2023/01/28 06:25:15;;;;;;;15.40;9.88;;;;;;;0.96;100.00;103003.97;5048944;28;20100;-76
2023/01/28 06:27:40;;;;;;;13.18;8.80;;;;;;;0.94;100.00;103006.44;5051476;28;20118;-76
2023/01/28 06:30:06;;;;;;;11.95;8.00;;;;;;;0.84;99.68;102992.25;5051145;28;20024;-76
2023/01/28 06:32:32;;;;;;;13.65;8.75;;;;;;;0.87;100.00;102988.97;5051201;28;20036;-76
2023/01/28 06:34:58;;;;;;;13.50;8.73;;;;;;;0.81;100.00;102992.09;5049715;28;20530;-76
2023/01/28 06:37:23;;;;;;;13.20;8.13;;;;;;;0.85;100.00;102990.56;5050627;28;20060;-76
2023/01/28 06:39:48;;;;;;;12.85;8.45;;;;;;;0.88;98.38;103006.13;5051551;28;20060;-76
2023/01/28 06:42:13;;;;;;;13.98;8.75;;;;;;;0.87;99.59;103005.25;5050768;28;20033;-76
2023/01/28 06:44:39;;;;;;;14.73;8.82;;;;;;;0.87;99.24;103012.09;5049214;28;20066;-76
2023/01/28 06:47:04;;;;;;;15.40;9.23;;;;;;;0.87;97.50;103004.38;5051814;28;20036;-76
2023/01/28 06:49:29;;;;;;;13.30;8.43;;;;;;;0.86;98.28;103007.75;5050460;28;20108;-76
2023/01/28 06:51:55;;;;;;;14.02;8.73;;;;;;;0.85;97.69;103013.69;5052778;28;20024;-76
2023/01/28 06:54:20;;;;;;;13.73;9.02;;;;;;;0.85;96.68;103017.16;5052704;28;20183;-76
2023/01/28 06:56:45;;;;;;;15.30;9.75;;;;;;;0.76;96.18;102997.84;5054563;28;20421;-76
2023/01/28 06:59:10;;;;;;;15.63;9.75;;;;;;;0.87;96.20;103014.66;5054666;28;20031;-76
2023/01/28 07:01:36;;;;;;;13.75;8.63;;;;;;;0.87;96.49;103006.94;5053418;28;20037;-76
2023/01/28 07:04:01;;;;;;;13.82;8.85;;;;;;;0.86;97.20;103007.75;5051600;28;20098;-76
2023/01/28 07:06:26;;;;;;;15.07;9.40;;;;;;;0.83;96.16;103018.75;5053385;28;20431;-76
2023/01/28 07:08:52;;;;;;;17.17;10.20;;;;;;;0.85;97.34;103018.81;5055002;28;20052;-76
2023/01/28 07:11:19;;;;;;;15.77;9.50;;;;;;;0.84;97.68;103028.22;5053698;28;20522;-76
2023/01/28 07:13:46;;;;;;;15.73;9.85;;;;;;;0.86;96.06;103028.31;5053003;28;20029;-77
2023/01/28 07:16:11;;;;;;;20.83;11.57;;;;;;;0.84;96.65;103017.94;5053517;28;20036;-77
2023/01/28 07:18:37;;;;;;;21.45;11.85;;;;;;;0.85;96.83;103029.09;5052376;28;20415;-77
2023/01/28 07:21:02;;;;;;;17.70;10.93;;;;;;;0.77;96.69;103020.13;5054819;28;20060;-77
2023/01/28 07:23:27;;;;;;;15.75;10.02;;;;;;;0.84;94.42;103045.31;5054608;28;20029;-77
2023/01/28 07:25:53;;;;;;;16.67;10.38;;;;;;;0.82;94.01;103041.81;5052833;28;20032;-77
2023/01/28 07:28:20;;;;;;;15.13;9.63;;;;;;;0.81;93.76;103043.47;5052511;28;20392;-77
2023/01/28 07:30:52;;;;;;;15.25;9.50;;;;;;;0.80;95.57;103040.84;5053887;28;20120;-77
2023/01/28 07:33:17;;;;;;;16.27;9.68;;;;;;;0.82;96.00;103045.25;5051214;28;20112;-77
2023/01/28 07:35:43;;;;;;;15.73;9.77;;;;;;;0.76;95.91;103037.22;5053818;28;20095;-74
2023/01/28 07:38:08;;;;;;;15.45;9.77;;;;;;;0.82;96.09;103046.94;5052529;28;20040;-75
2023/01/28 07:40:34;;;;;;;17.20;9.98;;;;;;;0.75;96.74;103030.31;5054073;28;20025;-75
2023/01/28 07:42:59;;;;;;;17.13;10.18;;;;;;;0.84;95.84;103045.31;5054093;28;20498;-75
2023/01/28 07:45:25;;;;;;;15.93;9.32;;;;;;;0.85;97.23;103047.06;5053302;28;20032;-75
2023/01/28 07:47:55;;;;;;;16.58;9.90;;;;;;;0.87;97.44;103053.19;5051028;28;20087;-75
2023/01/28 07:50:20;;;;;;;17.05;9.77;;;;;;;0.85;95.38;103057.34;5053448;28;20029;-75
2023/01/28 07:52:45;;;;;;;16.08;10.18;;;;;;;0.84;95.51;103047.88;5053237;28;20029;-75
2023/01/28 07:55:15;;;;;;;16.20;9.82;;;;;;;0.78;93.78;103039.84;5053572;28;20473;-75
2023/01/28 07:57:53;;;;;;;17.73;9.73;;;;;;;0.87;94.93;103060.88;5051652;28;20397;-75
2023/01/28 08:00:21;;;;;;;16.80;9.75;;;;;;;0.78;94.49;103050.13;5048078;28;20392;-75
2023/01/28 08:02:47;;;;;;;20.08;10.32;;;;;;;0.89;94.74;103069.56;5053808;28;20095;-75
2023/01/28 08:05:17;;;;;;;18.42;10.43;;;;;;;0.91;94.98;103071.38;5052669;28;20538;-75
2023/01/28 08:07:43;;;;;;;19.65;11.32;;;;;;;0.90;94.14;103069.63;5051958;28;20037;-75
2023/01/28 08:10:10;;;;;;;17.92;10.55;;;;;;;0.86;95.08;103059.13;5054001;28;20036;-75
2023/01/28 08:12:35;;;;;;;17.55;9.98;;;;;;;0.92;95.44;103060.31;5053552;28;20021;-75
2023/01/28 08:15:01;;;;;;;14.90;9.55;;;;;;;0.94;94.54;103061.25;5052378;28;20037;-75
2023/01/28 08:17:26;;;;;;;15.65;10.40;;;;;;;0.99;94.42;103076.06;5052049;28;20032;-75
2023/01/28 08:19:52;;;;;;;17.05;9.73;;;;;;;1.00;93.66;103082.94;5053939;28;20377;-78
2023/01/28 08:22:23;;;;;;;16.38;10.27;;;;;;;1.02;93.13;103092.50;5049411;28;20029;-78
2023/01/28 08:24:49;;;;;;;16.35;10.43;;;;;;;1.02;93.13;103092.50;5042483;28;20052;-75
2023/01/28 08:27:15;;;;;;;16.15;9.90;;;;;;;1.02;92.14;103102.78;5051854;28;20255;-75
2023/01/28 08:29:40;;;;;;;16.02;10.10;;;;;;;1.03;92.25;103108.78;5052677;28;20025;-75
2023/01/28 08:32:05;;;;;;;16.95;9.95;;;;;;;1.05;91.06;103097.81;5051541;28;20040;-75
2023/01/28 08:34:31;;;;;;;15.93;9.88;;;;;;;1.06;91.42;103094.41;5052285;28;20460;-75
2023/01/28 08:36:56;;;;;;;14.30;8.85;;;;;;;1.10;91.33;103098.03;5053092;28;20029;-76
2023/01/28 08:39:21;;;;;;;15.98;9.45;;;;;;;1.16;92.57;103101.78;5052243;28;20028;-76
2023/01/28 08:41:46;;;;;;;17.38;10.55;;;;;;;1.21;91.01;103096.00;5050925;28;20526;-75
2023/01/28 08:44:12;;;;;;;15.63;9.27;;;;;;;1.26;89.05;103109.97;5034830;28;20074;-75
2023/01/28 08:46:37;;;;;;;16.92;10.63;;;;;;;1.29;91.66;103110.13;5053005;28;20047;-75
2023/01/28 08:49:02;;;;;;;16.40;9.80;;;;;;;1.38;90.07;103114.06;5052458;28;20025;-75
2023/01/28 08:51:27;;;;;;;16.52;10.40;;;;;;;1.42;90.86;103096.22;5051894;28;20057;-75
2023/01/28 08:53:53;;;;;;;19.42;11.23;;;;;;;1.42;90.72;103098.78;5052625;28;20457;-75
2023/01/28 08:56:18;;;;;;;20.55;11.55;;;;;;;1.52;91.36;103101.88;5050180;28;20033;-75
2023/01/28 08:58:43;;;;;;;21.00;11.85;;;;;;;1.42;90.48;103094.53;5048429;28;20072;-75
2023/01/28 09:01:09;;;;;;;17.65;10.48;;;;;;;1.50;89.91;103123.16;5052182;28;20037;-75
2023/01/28 09:03:35;;;;;;;16.60;10.27;;;;;;;1.37;89.73;103117.44;5051674;28;20025;-74
2023/01/28 09:06:01;;;;;;;18.35;11.40;;;;;;;1.42;91.92;103124.50;5052487;28;20039;-75
2023/01/28 09:08:26;;;;;;;17.58;10.48;;;;;;;1.40;89.84;103125.28;5052645;28;20021;-75
2023/01/28 09:10:59;;;;;;;18.48;10.30;;;;;;;1.42;91.11;103122.78;5050600;28;20074;-76
2023/01/28 09:13:24;;;;;;;19.17;11.20;;;;;;;1.38;90.55;103116.63;5050751;28;20545;-75
2023/01/28 09:15:50;;;;;;;17.40;10.27;;;;;;;1.48;90.22;103125.69;5051831;28;20020;-75
2023/01/28 09:18:17;;;;;;;17.58;9.38;;;;;;;1.55;90.55;103127.75;5033119;28;20079;-75
2023/01/28 09:20:42;;;;;;;17.98;10.50;;;;;;;1.59;90.33;103131.34;5047872;28;20480;-75
2023/01/28 09:23:08;;;;;;;16.20;10.43;;;;;;;1.51;90.59;103128.41;5052394;28;20145;-75
2023/01/28 09:25:35;;;;;;;17.05;9.93;;;;;;;1.55;89.67;103144.88;5051585;28;20107;-75
2023/01/28 09:28:00;;;;;;;16.17;10.00;;;;;;;1.50;90.73;103139.47;5052232;28;20069;-75
2023/01/28 09:30:26;;;;;;;17.65;10.38;;;;;;;1.46;89.65;103129.84;5049252;28;20033;-75
2023/01/28 09:32:52;;;;;;;16.58;11.00;;;;;;;1.44;89.54;103128.00;5047799;28;20036;-75
2023/01/28 09:35:18;;;;;;;16.23;10.27;;;;;;;1.39;89.95;103138.94;5052358;28;20025;-75
2023/01/28 09:37:44;;;;;;;16.40;10.38;;;;;;;1.37;90.58;103137.09;5050847;28;20045;-75
2023/01/28 09:40:27;;;;;;;17.10;10.57;;;;;;;1.40;90.47;103153.53;5049922;28;20036;-75
2023/01/28 09:43:01;;;;;;;16.05;9.57;;;;;;;1.47;90.11;103151.28;5051778;28;20060;-75
2023/01/28 09:45:32;;;;;;;;;;;;;;;1.53;91.89;103147.34;5051911;28;20033;-76
2023/01/28 09:48:00;;;;;;;17.33;9.63;;;;;;;1.44;89.65;103153.69;5052068;28;20008;-75
2023/01/28 09:50:42;;;;;;;18.63;11.13;;;;;;;1.41;90.14;103139.03;5049956;28;20047;-76
2023/01/28 09:53:29;;;;;;;20.05;11.32;;;;;;;1.54;90.00;103140.53;5051607;28;20028;-76
2023/01/28 09:56:04;;;;;;;16.35;10.73;;;;;;;1.66;90.43;103145.41;5038993;28;20035;-76
2023/01/28 09:58:30;;;;;;;17.08;11.02;;;;;;;1.63;89.32;103141.88;5050738;28;20032;-76
2023/01/28 10:01:14;;;;;;;18.35;11.32;;;;;;;1.71;88.60;103157.69;5049427;28;20021;-76
2023/01/28 10:04:08;;;;;;;16.77;10.73;;;;;;;1.73;88.89;103157.75;5051661;28;20076;-76
2023/01/28 10:06:55;;;;;;;15.20;10.37;;;;;;;1.66;87.45;103163.41;5051196;28;20155;-76
2023/01/28 10:09:41;;;;;;;16.70;10.68;;;;;;;1.70;88.68;103173.94;5048605;28;20033;-76
2023/01/28 10:12:31;;;;;;;18.90;10.73;;;;;;;1.72;87.54;103177.44;5051673;28;20055;-76
2023/01/28 10:15:24;;;;;;;15.48;10.40;;;;;;;1.74;89.23;103174.97;5051232;28;20469;-75
2023/01/28 10:17:53;;;;;;;16.13;10.10;;;;;;;1.72;87.31;103167.16;5050956;28;20025;-75
2023/01/28 10:20:29;;;;;;;17.40;10.85;;;;;;;1.72;87.20;103176.56;5050524;28;20033;-76
2023/01/28 10:23:33;;;;;;;17.23;11.13;;;;;;;1.60;88.70;103148.53;5052069;28;20051;-77
2023/01/28 10:26:03;;;;;;;14.67;9.73;;;;;;;1.74;86.38;103187.81;4999932;28;20033;-76
2023/01/28 10:28:29;;;;;;;15.70;9.80;;;;;;;1.72;86.15;103187.72;5052999;28;20057;-76
2023/01/28 10:30:55;;;;;;;16.90;10.65;;;;;;;1.75;86.82;103180.16;5053261;28;20506;-76
2023/01/28 10:33:26;;;;;;;13.95;10.02;;;;;;;1.77;85.70;103182.84;5050111;28;20096;-76
2023/01/28 10:35:51;;;;;;;15.70;10.68;;;;;;;1.78;85.95;103175.19;5055013;28;20124;-76
2023/01/28 10:38:20;;;;;;;15.43;10.57;;;;;;;1.79;85.81;103173.47;5035921;28;20124;-76
2023/01/28 10:40:49;;;;;;;16.48;10.73;;;;;;;1.81;86.28;103177.03;5054263;28;20410;-76
2023/01/28 10:43:16;;;;;;;15.02;10.32;;;;;;;1.78;85.58;103170.03;5053467;28;20583;-76
2023/01/28 10:46:07;;;;;;;16.02;10.52;;;;;;;1.83;84.47;103166.03;5050962;28;20070;-76
2023/01/28 10:48:41;;;;;;;15.63;10.20;;;;;;;1.87;85.90;103172.19;5040623;28;20021;-76
2023/01/28 10:51:07;;;;;;;16.30;10.55;;;;;;;1.94;87.03;103181.97;5045931;28;20072;-76
2023/01/28 10:53:38;;;;;;;15.80;9.93;;;;;;;1.96;85.97;103169.16;5038103;28;20018;-76
2023/01/28 10:56:16;;;;;;;13.98;9.43;;;;;;;1.94;84.05;103165.66;5046463;28;20032;-76
2023/01/28 10:58:52;;;;;;;14.15;9.20;;;;;;;1.94;84.55;103163.09;5048243;28;20527;-76
2023/01/28 11:01:18;;;;;;;13.80;8.65;;;;;;;1.95;85.06;103167.41;5055007;28;20017;-76
2023/01/28 11:03:53;;;;;;;13.60;9.13;;;;;;;1.88;85.03;103151.69;5054117;28;20549;-76
2023/01/28 11:06:27;;;;;;;15.02;9.50;;;;;;;1.74;84.55;103146.69;5032715;28;20065;-76
2023/01/28 11:08:53;;;;;;;15.75;9.70;;;;;;;1.76;85.47;103174.22;5050882;28;20025;-76
2023/01/28 11:11:25;;;;;;;14.82;9.20;;;;;;;1.79;85.94;103170.91;5052577;28;20033;-76
2023/01/28 11:13:53;;;;;;;14.27;9.23;;;;;;;1.81;87.67;103167.63;5052754;28;20041;-76
2023/01/28 11:16:19;;;;;;;14.50;9.00;;;;;;;1.84;86.12;103162.63;5054255;28;20104;-77
2023/01/28 11:18:52;;;;;;;13.88;8.95;;;;;;;1.81;85.63;103161.59;5054942;28;20033;-77
2023/01/28 11:21:21;;;;;;;16.58;9.68;;;;;;;1.74;87.29;103154.38;5050309;28;20108;-76
2023/01/28 11:23:56;;;;;;;16.15;10.10;;;;;;;1.83;86.71;103159.97;5048212;28;20047;-76
2023/01/28 11:26:29;;;;;;;15.88;9.70;;;;;;;1.87;85.46;103149.03;5054297;28;20029;-78
2023/01/28 11:28:55;;;;;;;15.25;9.27;;;;;;;1.83;86.27;103141.97;5052474;28;20048;-75
2023/01/28 11:31:23;;;;;;;15.85;9.65;;;;;;;1.88;86.58;103138.81;5052511;28;20021;-77
2023/01/28 11:33:53;;;;;;;17.33;10.05;;;;;;;1.92;85.65;103124.41;5052803;28;20036;-77
2023/01/28 11:36:23;;;;;;;14.82;9.65;;;;;;;1.98;85.69;103126.41;5053106;28;20029;-77
2023/01/28 11:39:15;;;;;;;15.30;10.13;;;;;;;2.15;87.37;103125.50;5052268;28;20045;-77
2023/01/28 11:41:41;;;;;;;17.27;10.02;;;;;;;2.34;86.57;103124.69;5054321;28;20100;-77
2023/01/28 11:44:26;;;;;;;17.08;9.70;;;;;;;2.44;85.02;103126.00;5053037;28;20033;-77
2023/01/28 11:47:14;;;;;;;14.60;8.93;;;;;;;2.48;84.47;103118.47;5047378;28;20040;-76
2023/01/28 11:50:11;;;;;;;14.57;9.27;;;;;;;2.56;85.06;103114.56;5049401;28;20025;-76
2023/01/28 11:53:04;;;;;;;15.48;9.50;;;;;;;2.62;83.49;103101.09;5049790;28;20382;-77
2023/01/28 11:55:51;;;;;;;14.20;9.15;;;;;;;2.57;82.75;103095.72;5050164;28;20472;-77